Time;durP1;ratioP1;P1;durP2;ratioP2;P2;SDS_P1;SDS_P2;PMS_P1;PMS_P2;Temp;Humidity;BMP_temperature;BMP_pressure;BME280_temperature;BME280_humidity;BME280_pressure;Samples;Min_cycle;Max_cycle;Signal;HPM_P1;HPM_P2
2022/07/03 00:00:38;;;;;;;2.58;2.38;;;18.10;99.90;;;;;;5022260;28;20136;-77
2022/07/03 00:03:04;;;;;;;4.22;2.15;;;18.00;99.90;;;;;;5019452;28;20056;-78
2022/07/03 00:05:30;;;;;;;2.28;2.15;;;18.00;99.90;;;;;;5020320;28;20049;-77
2022/07/03 00:07:56;;;;;;;2.83;2.45;;;18.00;99.90;;;;;;5021059;28;20492;-77
2022/07/03 00:10:22;;;;;;;4.13;2.75;;;18.00;99.90;;;;;;5019226;28;20060;-77
2022/07/03 00:12:47;;;;;;;2.78;2.28;;;18.00;99.90;;;;;;5020769;28;20117;-78
2022/07/03 00:15:13;;;;;;;4.13;3.17;;;18.00;99.90;;;;;;5020232;28;20053;-77
2022/07/03 00:17:39;;;;;;;2.15;2.00;;;17.90;99.90;;;;;;5021410;28;20056;-77
2022/07/03 00:20:05;;;;;;;4.57;2.45;;;17.80;99.90;;;;;;5020879;28;20128;-77
2022/07/03 00:22:33;;;;;;;8.68;2.53;;;17.80;99.90;;;;;;5020186;28;20054;-77
2022/07/03 00:25:11;;;;;;;2.63;2.45;;;17.80;99.90;;;;;;5020573;28;20041;-77
2022/07/03 00:27:38;;;;;;;3.28;3.03;;;17.80;99.90;;;;;;5020578;28;20037;-77
2022/07/03 00:30:07;;;;;;;2.97;2.58;;;17.70;99.90;;;;;;5019454;28;20510;-77
2022/07/03 00:32:33;;;;;;;3.72;3.47;;;17.70;99.90;;;;;;5021095;28;20049;-77
2022/07/03 00:35:00;;;;;;;5.03;2.75;;;17.60;99.90;;;;;;5020771;28;20049;-77
2022/07/03 00:37:26;;;;;;;4.13;3.38;;;17.60;99.90;;;;;;5018388;28;20156;-78
2022/07/03 00:39:52;;;;;;;3.60;3.30;;;17.60;99.90;;;;;;5020487;28;20559;-77
2022/07/03 00:42:18;;;;;;;4.80;2.47;;;17.60;99.90;;;;;;5020883;28;20037;-77
2022/07/03 00:44:46;;;;;;;2.78;2.58;;;17.60;99.90;;;;;;5020709;28;20496;-77
2022/07/03 00:47:12;;;;;;;3.85;3.08;;;17.50;99.90;;;;;;5019562;28;20048;-77
2022/07/03 00:49:39;;;;;;;3.20;2.88;;;17.50;99.90;;;;;;5019862;28;20060;-77
2022/07/03 00:52:08;;;;;;;2.50;2.15;;;17.40;99.90;;;;;;5017978;28;20725;-78
2022/07/03 00:54:34;;;;;;;2.53;2.33;;;17.40;99.90;;;;;;5052974;28;20114;-78
2022/07/03 00:57:02;;;;;;;3.35;3.03;;;17.30;99.90;;;;;;5019379;28;20163;-77
2022/07/03 00:59:28;;;;;;;4.03;2.88;;;17.30;99.90;;;;;;5020179;28;20116;-77
2022/07/03 01:04:39;;;;;;;2.63;2.42;;;17.30;99.90;;;;;;5025389;22;20125;-78
2022/07/03 01:07:34;;;;;;;2.42;2.22;;;17.20;99.90;;;;;;5018193;28;20771;-78
2022/07/03 01:10:06;;;;;;;3.63;2.63;;;17.30;99.90;;;;;;5018853;28;20095;-78
2022/07/03 01:13:00;;;;;;;3.70;2.88;;;17.20;99.90;;;;;;5020214;28;20045;-77
2022/07/03 01:15:33;;;;;;;2.70;2.55;;;17.10;99.90;;;;;;5020810;28;20450;-77
2022/07/03 01:18:24;;;;;;;4.03;3.63;;;17.10;99.90;;;;;;5020398;28;20041;-77
2022/07/03 01:21:06;;;;;;;2.33;2.20;;;17.10;99.90;;;;;;5017735;28;20041;-77
2022/07/03 01:23:57;;;;;;;4.37;3.03;;;17.10;99.90;;;;;;5020694;28;20072;-77
2022/07/03 01:26:26;;;;;;;4.45;3.08;;;17.10;99.90;;;;;;5020568;28;20120;-78
2022/07/03 01:28:52;;;;;;;4.88;2.65;;;17.10;99.90;;;;;;5019883;28;20492;-77
2022/07/03 01:31:21;;;;;;;4.10;2.75;;;17.10;99.90;;;;;;5018927;28;20038;-77
2022/07/03 01:33:50;;;;;;;4.78;2.20;;;17.00;99.90;;;;;;5019076;28;20075;-77
2022/07/03 01:36:21;;;;;;;2.45;2.22;;;17.00;99.90;;;;;;5019708;28;20041;-78
2022/07/03 01:38:49;;;;;;;5.53;2.72;;;16.90;99.90;;;;;;5020224;28;20052;-78
2022/07/03 01:41:15;;;;;;;2.85;2.20;;;16.90;99.90;;;;;;5020029;28;20077;-77
2022/07/03 01:43:49;;;;;;;2.83;2.63;;;16.90;99.90;;;;;;5020553;28;20577;-78
2022/07/03 01:46:18;;;;;;;3.40;2.80;;;16.90;99.90;;;;;;5020023;28;20041;-77
2022/07/03 01:48:45;;;;;;;2.70;2.50;;;16.90;99.90;;;;;;5020330;28;20049;-77
2022/07/03 01:51:16;;;;;;;3.20;2.88;;;16.90;99.90;;;;;;5020225;28;20037;-77
2022/07/03 01:53:47;;;;;;;2.53;2.20;;;16.80;99.90;;;;;;5020346;28;20075;-78
2022/07/03 01:56:14;;;;;;;3.10;2.65;;;16.80;99.90;;;;;;5020423;28;20037;-77
2022/07/03 01:58:40;;;;;;;2.78;2.58;;;16.80;99.90;;;;;;5002603;28;20044;-78
2022/07/03 02:01:20;;;;;;;2.40;2.30;;;16.70;99.90;;;;;;5020454;28;20054;-77
2022/07/03 02:04:05;;;;;;;3.83;2.42;;;16.70;99.90;;;;;;5019873;28;20141;-77
2022/07/03 02:06:43;;;;;;;2.03;1.83;;;16.60;99.90;;;;;;5023105;28;20050;-77
2022/07/03 02:09:11;;;;;;;4.05;2.33;;;16.60;99.90;;;;;;5022709;28;20037;-77
2022/07/03 02:11:39;;;;;;;6.78;2.28;;;16.50;99.90;;;;;;5021971;28;20037;-77
2022/07/03 02:14:16;;;;;;;4.75;3.05;;;16.50;99.90;;;;;;5003313;28;20074;-77
2022/07/03 02:17:20;;;;;;;3.60;3.10;;;16.50;99.90;;;;;;5004398;28;20042;-77
2022/07/03 02:19:59;;;;;;;3.72;3.42;;;16.50;99.90;;;;;;4964661;28;20047;-77
2022/07/03 02:22:33;;;;;;;2.83;2.60;;;16.40;99.90;;;;;;4998771;28;20111;-78
2022/07/03 02:25:04;;;;;;;3.17;2.42;;;16.40;99.90;;;;;;5002361;28;20054;-77
2022/07/03 02:27:39;;;;;;;3.38;3.17;;;16.50;99.90;;;;;;5003670;28;20439;-77
2022/07/03 02:30:09;;;;;;;4.05;3.75;;;16.40;99.90;;;;;;5002140;28;20042;-77
2022/07/03 02:32:48;;;;;;;3.38;3.08;;;16.50;99.90;;;;;;5003528;28;20049;-78
2022/07/03 02:35:27;;;;;;;5.72;3.17;;;16.40;99.90;;;;;;5001670;28;20085;-77
2022/07/03 02:37:58;;;;;;;3.70;3.38;;;16.50;99.90;;;;;;5001809;28;20104;-77
2022/07/03 02:40:45;;;;;;;3.50;3.20;;;16.50;99.90;;;;;;5003128;28;20050;-77
2022/07/03 02:43:21;;;;;;;4.47;3.20;;;16.50;99.90;;;;;;5002541;28;20481;-77
2022/07/03 02:45:55;;;;;;;3.17;2.88;;;16.50;99.90;;;;;;5001617;28;20045;-77
2022/07/03 02:48:31;;;;;;;3.13;2.88;;;16.50;99.90;;;;;;5002066;28;20051;-78
2022/07/03 02:51:04;;;;;;;3.75;2.85;;;16.50;99.90;;;;;;5002106;28;20181;-77
2022/07/03 02:53:44;;;;;;;4.90;4.28;;;16.50;99.90;;;;;;5002991;28;20034;-78
2022/07/03 02:56:47;;;;;;;4.72;3.92;;;16.60;99.90;;;;;;5003496;28;20072;-77
2022/07/03 02:59:46;;;;;;;5.40;3.92;;;16.60;99.90;;;;;;5001878;28;20050;-77
2022/07/03 03:02:30;;;;;;;7.07;3.47;;;16.60;99.90;;;;;;5002179;28;20054;-77
2022/07/03 03:05:09;;;;;;;4.13;3.25;;;16.70;99.90;;;;;;5001794;28;20675;-78
2022/07/03 03:07:45;;;;;;;4.13;3.67;;;16.70;99.90;;;;;;5002626;28;20068;-77
2022/07/03 03:10:13;;;;;;;5.47;4.32;;;16.70;99.90;;;;;;5001700;28;20057;-77
2022/07/03 03:12:41;;;;;;;3.75;3.03;;;16.70;99.90;;;;;;5012402;28;20049;-78
2022/07/03 03:15:12;;;;;;;3.70;3.42;;;16.70;99.90;;;;;;5021919;28;20726;-77
2022/07/03 03:17:50;;;;;;;4.18;3.88;;;16.60;99.90;;;;;;5022697;28;20060;-77
2022/07/03 03:20:18;;;;;;;4.88;4.47;;;16.60;99.90;;;;;;5020220;28;20045;-78
2022/07/03 03:23:07;;;;;;;3.75;3.40;;;16.60;99.90;;;;;;5022245;28;20519;-77
2022/07/03 03:25:33;;;;;;;3.40;3.17;;;16.60;99.90;;;;;;5010607;28;20084;-77
2022/07/03 03:28:01;;;;;;;3.85;3.53;;;16.60;99.90;;;;;;5020307;28;20049;-77
2022/07/03 03:30:27;;;;;;;5.15;4.28;;;16.60;99.90;;;;;;5020623;28;20047;-77
2022/07/03 03:32:52;;;;;;;5.55;4.07;;;16.60;99.90;;;;;;5022277;28;20068;-77
2022/07/03 03:35:18;;;;;;;4.53;3.92;;;16.60;99.90;;;;;;5019416;28;20124;-78
2022/07/03 03:37:45;;;;;;;3.60;3.30;;;16.60;99.90;;;;;;5021613;28;20033;-77
2022/07/03 03:40:11;;;;;;;4.32;4.03;;;16.60;99.90;;;;;;5022309;28;20037;-77
2022/07/03 03:42:37;;;;;;;4.18;3.80;;;16.60;99.90;;;;;;5021353;28;20056;-77
2022/07/03 03:45:03;;;;;;;4.32;3.88;;;16.50;99.90;;;;;;5021462;28;20442;-77
2022/07/03 03:47:29;;;;;;;3.45;3.15;;;16.50;99.90;;;;;;5020397;28;20572;-78
2022/07/03 03:49:55;;;;;;;4.85;3.65;;;16.60;99.90;;;;;;5019803;28;20480;-77
2022/07/03 03:52:21;;;;;;;6.20;3.75;;;16.50;99.90;;;;;;5021730;28;20046;-78
2022/07/03 03:54:47;;;;;;;3.65;3.45;;;16.50;99.90;;;;;;5019953;28;20052;-77
2022/07/03 03:57:21;;;;;;;3.33;3.08;;;16.40;99.90;;;;;;5020521;28;20391;-77
2022/07/03 03:59:47;;;;;;;3.20;2.90;;;16.50;99.90;;;;;;5019684;28;20093;-77
2022/07/03 04:02:13;;;;;;;5.32;3.83;;;16.50;99.90;;;;;;5021943;28;20092;-77
2022/07/03 04:04:38;;;;;;;3.05;2.85;;;16.50;99.90;;;;;;5021350;28;20129;-78
2022/07/03 04:07:04;;;;;;;4.60;4.20;;;16.50;99.90;;;;;;5020745;28;20527;-77
2022/07/03 04:09:30;;;;;;;3.60;3.30;;;16.60;99.90;;;;;;5021521;28;20092;-77
2022/07/03 04:11:56;;;;;;;3.70;3.40;;;16.60;99.90;;;;;;5016541;28;20061;-77
2022/07/03 04:14:21;;;;;;;3.58;3.28;;;16.60;99.90;;;;;;5001818;28;20558;-78
2022/07/03 04:16:47;;;;;;;3.00;2.78;;;16.70;99.90;;;;;;5001126;28;20038;-77
2022/07/03 04:19:12;;;;;;;5.63;4.03;;;16.70;99.90;;;;;;5001663;28;20555;-77
2022/07/03 04:21:38;;;;;;;3.88;3.50;;;16.70;99.90;;;;;;5000697;28;20095;-77
2022/07/03 04:24:04;;;;;;;3.35;3.05;;;16.70;99.90;;;;;;5000852;28;20085;-77
2022/07/03 04:26:30;;;;;;;4.65;3.00;;;16.70;99.90;;;;;;5000996;28;20034;-77
2022/07/03 04:28:55;;;;;;;3.28;2.88;;;16.70;99.90;;;;;;5001157;28;20831;-77
2022/07/03 04:31:21;;;;;;;3.67;3.25;;;16.70;99.90;;;;;;5001286;28;20424;-77
2022/07/03 04:33:46;;;;;;;3.28;2.65;;;16.70;99.90;;;;;;5001194;28;20045;-77
2022/07/03 04:36:12;;;;;;;3.90;3.10;;;16.80;99.90;;;;;;4999730;28;20038;-77
2022/07/03 04:38:37;;;;;;;5.20;3.55;;;16.80;99.90;;;;;;5001318;28;20041;-78
2022/07/03 04:41:03;;;;;;;3.85;3.55;;;16.70;99.90;;;;;;5001172;28;20046;-77
2022/07/03 04:43:28;;;;;;;3.38;2.53;;;16.70;99.90;;;;;;5001317;28;20073;-77
2022/07/03 04:45:54;;;;;;;3.15;2.88;;;16.70;99.90;;;;;;5001086;28;20146;-77
2022/07/03 04:48:20;;;;;;;3.17;2.65;;;16.70;99.90;;;;;;5001222;28;20042;-77
2022/07/03 04:50:45;;;;;;;5.07;3.50;;;16.70;99.90;;;;;;4982517;28;20088;-77
2022/07/03 04:53:11;;;;;;;3.55;2.65;;;16.70;99.90;;;;;;5002200;28;20369;-77
2022/07/03 04:55:37;;;;;;;3.22;2.92;;;16.70;99.90;;;;;;4999354;28;20049;-77
2022/07/03 04:58:02;;;;;;;3.15;2.42;;;16.70;99.90;;;;;;5001215;28;20046;-77
2022/07/03 05:00:28;;;;;;;3.50;3.03;;;16.70;99.90;;;;;;5000799;28;20125;-77
2022/07/03 05:02:54;;;;;;;3.28;2.97;;;16.70;99.90;;;;;;4999299;28;20050;-77
2022/07/03 05:05:19;;;;;;;5.28;3.20;;;16.80;99.90;;;;;;5000408;28;20052;-77
2022/07/03 05:07:45;;;;;;;5.70;2.17;;;16.80;99.90;;;;;;5000353;28;20041;-77
2022/07/03 05:10:10;;;;;;;4.95;2.80;;;16.90;99.90;;;;;;5001465;28;20049;-77
2022/07/03 05:12:36;;;;;;;3.53;2.22;;;16.90;99.90;;;;;;5010642;28;20069;-77
2022/07/03 05:15:03;;;;;;;5.88;2.53;;;17.00;99.90;;;;;;5019682;28;20037;-77
2022/07/03 05:17:28;;;;;;;3.42;2.38;;;17.10;99.90;;;;;;5020717;28;20041;-77
2022/07/03 05:22:38;;;;;;;2.35;2.15;;;17.10;99.90;;;;;;5020544;28;20113;-78
2022/07/03 05:25:05;;;;;;;1.35;1.25;;;17.20;99.90;;;;;;5020269;28;20051;-77
2022/07/03 05:27:30;;;;;;;1.27;1.20;;;17.20;99.90;;;;;;5019361;28;20037;-77
2022/07/03 05:29:56;;;;;;;2.20;1.90;;;17.20;99.90;;;;;;5020063;28;20038;-77
2022/07/03 05:32:22;;;;;;;2.03;1.70;;;17.30;99.90;;;;;;5020393;28;20427;-77
2022/07/03 05:34:47;;;;;;;1.40;1.35;;;17.30;99.90;;;;;;5019029;28;20036;-77
2022/07/03 05:37:13;;;;;;;1.95;1.85;;;17.30;99.90;;;;;;5019968;28;20041;-77
2022/07/03 05:39:38;;;;;;;1.42;1.33;;;17.30;99.90;;;;;;5022932;28;20456;-77
2022/07/03 05:42:05;;;;;;;2.90;1.75;;;17.40;99.90;;;;;;5023893;28;20044;-77
2022/07/03 05:44:31;;;;;;;1.75;1.58;;;17.40;99.90;;;;;;5024079;28;20037;-77
2022/07/03 05:46:56;;;;;;;2.33;2.13;;;17.50;99.90;;;;;;5022396;28;20538;-77
2022/07/03 05:49:22;;;;;;;1.77;1.50;;;17.50;99.90;;;;;;5023451;28;20600;-77
2022/07/03 05:51:48;;;;;;;1.55;1.45;;;17.40;99.90;;;;;;5022537;28;20049;-77
2022/07/03 05:54:13;;;;;;;1.85;1.75;;;17.50;99.90;;;;;;5023872;28;20041;-77
2022/07/03 05:56:39;;;;;;;2.20;2.00;;;17.50;99.90;;;;;;5024093;28;20535;-77
2022/07/03 05:59:05;;;;;;;2.55;2.35;;;17.50;99.90;;;;;;5023555;28;20117;-78
2022/07/03 06:01:30;;;;;;;2.70;1.40;;;17.50;99.90;;;;;;5023621;28;20029;-77
2022/07/03 06:03:56;;;;;;;1.55;1.45;;;17.60;99.90;;;;;;5022111;28;20057;-77
2022/07/03 06:06:21;;;;;;;1.45;1.20;;;17.60;99.90;;;;;;5022637;28;20049;-77
2022/07/03 06:08:47;;;;;;;2.97;1.77;;;17.60;99.90;;;;;;5023690;28;20073;-77
2022/07/03 06:11:12;;;;;;;1.60;1.40;;;17.70;99.90;;;;;;5023409;28;20038;-77
2022/07/03 06:13:38;;;;;;;2.40;2.20;;;17.70;99.90;;;;;;5004061;28;20083;-77
2022/07/03 06:16:04;;;;;;;2.40;1.52;;;17.80;99.90;;;;;;5001874;28;20103;-77
2022/07/03 06:18:30;;;;;;;1.25;1.15;;;17.80;99.90;;;;;;5003587;28;20046;-77
2022/07/03 06:20:55;;;;;;;1.17;1.15;;;17.80;99.90;;;;;;5001251;28;20610;-77
2022/07/03 06:23:21;;;;;;;1.33;1.17;;;17.90;99.90;;;;;;5003585;28;20436;-77
2022/07/03 06:25:46;;;;;;;1.00;0.90;;;17.90;99.90;;;;;;5003111;28;20381;-77
2022/07/03 06:28:12;;;;;;;2.28;1.30;;;17.90;99.90;;;;;;5003009;28;20030;-77
2022/07/03 06:30:38;;;;;;;0.80;0.80;;;17.90;99.90;;;;;;5001886;28;20499;-77
2022/07/03 06:33:03;;;;;;;1.55;1.45;;;18.00;99.90;;;;;;5002959;28;20046;-77
2022/07/03 06:35:29;;;;;;;0.88;0.88;;;18.00;99.90;;;;;;5003058;28;20150;-77
2022/07/03 06:37:54;;;;;;;1.58;1.15;;;18.10;99.90;;;;;;5002743;28;20132;-77
2022/07/03 06:40:20;;;;;;;1.70;1.60;;;18.10;99.90;;;;;;5003588;28;20123;-77
2022/07/03 06:42:45;;;;;;;1.20;0.85;;;18.10;99.90;;;;;;5002806;28;20117;-77
2022/07/03 06:45:12;;;;;;;2.55;1.08;;;18.10;99.90;;;;;;5003529;28;20528;-77
2022/07/03 06:47:40;;;;;;;1.27;1.17;;;18.20;99.90;;;;;;5003245;28;20100;-77
2022/07/03 06:50:07;;;;;;;1.38;0.85;;;18.20;99.90;;;;;;4999935;28;20038;-77
2022/07/03 06:52:32;;;;;;;0.80;0.80;;;18.20;99.90;;;;;;5003224;28;20038;-77
2022/07/03 06:54:58;;;;;;;1.67;0.93;;;18.30;99.90;;;;;;5003034;28;20691;-77
2022/07/03 06:57:24;;;;;;;1.15;1.10;;;18.30;99.90;;;;;;5002849;28;20053;-77
2022/07/03 06:59:49;;;;;;;1.02;1.02;;;18.30;99.90;;;;;;5002553;28;20076;-77
2022/07/03 07:02:15;;;;;;;1.13;1.05;;;18.40;99.90;;;;;;5001979;28;20049;-78
2022/07/03 07:04:40;;;;;;;0.68;0.68;;;18.30;99.90;;;;;;5017039;28;20110;-77
2022/07/03 07:07:06;;;;;;;0.65;0.65;;;18.40;99.90;;;;;;5022218;28;20265;-77
2022/07/03 07:09:32;;;;;;;1.88;1.00;;;18.40;99.90;;;;;;5020488;28;20160;-78
2022/07/03 07:11:57;;;;;;;0.80;0.80;;;18.40;99.90;;;;;;5016954;28;20492;-78
2022/07/03 07:14:23;;;;;;;0.95;0.85;;;18.50;99.90;;;;;;5004517;28;20404;-78
2022/07/03 07:16:49;;;;;;;0.43;0.43;;;18.50;99.90;;;;;;5001707;28;20443;-78
2022/07/03 07:19:14;;;;;;;0.57;0.50;;;18.50;99.90;;;;;;5001960;28;20057;-78
2022/07/03 07:21:40;;;;;;;1.42;0.98;;;18.60;99.90;;;;;;5002860;28;20435;-76
2022/07/03 07:24:06;;;;;;;0.50;0.50;;;18.60;99.90;;;;;;5002098;28;20488;-76
2022/07/03 07:26:31;;;;;;;0.73;0.35;;;18.60;99.90;;;;;;5002812;28;20456;-76
2022/07/03 07:28:57;;;;;;;1.20;1.10;;;18.60;99.90;;;;;;5000457;28;20113;-76
2022/07/03 07:31:23;;;;;;;3.92;0.88;;;18.60;99.90;;;;;;5000991;28;20042;-78
2022/07/03 07:33:49;;;;;;;1.00;0.65;;;18.60;99.90;;;;;;5002758;28;20050;-78
2022/07/03 07:36:14;;;;;;;0.63;0.63;;;18.70;99.90;;;;;;5001145;28;20052;-78
2022/07/03 07:38:40;;;;;;;0.65;0.55;;;18.70;99.90;;;;;;5002817;28;20500;-77
2022/07/03 07:41:05;;;;;;;0.50;0.50;;;18.80;99.90;;;;;;5006358;28;20045;-78
2022/07/03 07:43:31;;;;;;;2.33;1.33;;;18.80;99.90;;;;;;5009229;28;20038;-78
2022/07/03 07:45:57;;;;;;;1.17;0.68;;;18.80;99.90;;;;;;5016116;28;20049;-78
2022/07/03 07:48:22;;;;;;;1.02;0.80;;;18.80;99.90;;;;;;5021347;28;20040;-78
2022/07/03 07:50:49;;;;;;;0.47;0.40;;;18.90;99.90;;;;;;5020926;28;20454;-78
2022/07/03 07:53:15;;;;;;;1.92;1.42;;;18.80;99.90;;;;;;5021395;28;20460;-78
2022/07/03 07:55:40;;;;;;;0.20;0.20;;;18.80;99.90;;;;;;5022081;28;20123;-78
2022/07/03 07:58:08;;;;;;;1.52;0.80;;;18.90;99.90;;;;;;5003699;28;20132;-78
2022/07/03 08:00:33;;;;;;;1.45;0.50;;;19.00;99.90;;;;;;5017914;28;20060;-78
2022/07/03 08:05:43;;;;;;;0.40;0.40;;;19.10;99.90;;;;;;4999904;28;20135;-79
2022/07/03 08:08:13;;;;;;;0.65;0.50;;;19.10;99.90;;;;;;5001771;28;20065;-77
2022/07/03 08:10:46;;;;;;;1.27;0.63;;;19.20;99.90;;;;;;5001525;28;20041;-77
2022/07/03 08:13:13;;;;;;;0.80;0.80;;;19.30;99.90;;;;;;5016350;28;20049;-77
2022/07/03 08:15:40;;;;;;;2.13;0.98;;;19.40;99.90;;;;;;5020699;28;20064;-78
2022/07/03 08:18:06;;;;;;;1.85;1.10;;;19.40;99.90;;;;;;5020353;28;20092;-77
2022/07/03 08:20:32;;;;;;;2.60;1.10;;;19.30;99.90;;;;;;5020547;28;20041;-78
2022/07/03 08:22:58;;;;;;;1.52;1.05;;;19.30;99.90;;;;;;5020449;28;20051;-78
2022/07/03 08:25:25;;;;;;;1.13;0.98;;;19.30;99.90;;;;;;5020958;28;20510;-78
2022/07/03 08:27:50;;;;;;;3.25;1.63;;;19.30;99.90;;;;;;5021294;28;20040;-78
2022/07/03 08:30:17;;;;;;;3.05;1.17;;;19.30;99.90;;;;;;5020623;28;20636;-78
2022/07/03 08:32:52;;;;;;;2.75;1.42;;;19.30;99.90;;;;;;5020096;28;20103;-78
2022/07/03 08:35:19;;;;;;;1.15;1.05;;;19.30;99.90;;;;;;5019614;28;20069;-78
2022/07/03 08:37:46;;;;;;;2.05;1.00;;;19.30;99.90;;;;;;5020762;28;20415;-78
2022/07/03 08:40:15;;;;;;;1.25;1.10;;;19.30;99.90;;;;;;5020849;28;20381;-78
2022/07/03 08:42:49;;;;;;;5.13;1.25;;;19.30;99.90;;;;;;5002941;28;20045;-77
2022/07/03 08:45:17;;;;;;;2.22;1.27;;;19.30;99.90;;;;;;5020774;28;20787;-78
2022/07/03 08:47:45;;;;;;;3.45;1.05;;;19.30;99.90;;;;;;5019487;28;20112;-78
2022/07/03 08:50:13;;;;;;;0.55;0.55;;;19.30;99.90;;;;;;5012279;28;20045;-79
2022/07/03 08:52:40;;;;;;;1.40;1.13;;;19.30;99.90;;;;;;5014439;28;20037;-77
2022/07/03 08:55:07;;;;;;;2.95;1.08;;;19.40;99.90;;;;;;5020500;28;20224;-77
2022/07/03 08:57:33;;;;;;;2.83;1.33;;;19.40;99.90;;;;;;5020925;28;20041;-77
2022/07/03 09:00:01;;;;;;;0.80;0.80;;;19.40;99.90;;;;;;5019560;28;20923;-78
2022/07/03 09:02:28;;;;;;;3.58;1.05;;;19.40;99.90;;;;;;5020390;28;20062;-78
2022/07/03 09:04:56;;;;;;;2.05;0.82;;;19.40;99.90;;;;;;5019293;28;20045;-78
2022/07/03 09:07:25;;;;;;;4.65;1.52;;;19.50;99.90;;;;;;5018983;28;20053;-78
2022/07/03 09:09:51;;;;;;;1.48;1.30;;;19.50;99.90;;;;;;5020305;28;20056;-78
2022/07/03 09:12:17;;;;;;;1.75;0.85;;;19.60;99.90;;;;;;5013114;28;20542;-79
2022/07/03 09:14:43;;;;;;;1.17;0.82;;;19.60;99.90;;;;;;5016950;28;20045;-78
2022/07/03 09:17:10;;;;;;;2.67;1.23;;;19.60;99.90;;;;;;5023215;28;20151;-76
2022/07/03 09:19:47;;;;;;;2.22;1.20;;;19.70;99.90;;;;;;5023724;28;20160;-78
2022/07/03 09:22:24;;;;;;;1.10;1.00;;;19.70;99.90;;;;;;5023868;28;20037;-79
2022/07/03 09:24:52;;;;;;;1.40;0.93;;;19.80;99.90;;;;;;5022677;28;20107;-78
2022/07/03 09:27:20;;;;;;;3.53;1.23;;;19.80;99.90;;;;;;5024738;28;20042;-78
2022/07/03 09:30:09;;;;;;;1.38;1.02;;;19.80;99.90;;;;;;5022516;28;20046;-80
2022/07/03 09:32:38;;;;;;;1.65;1.10;;;19.90;99.90;;;;;;5022688;28;20056;-79
2022/07/03 09:35:23;;;;;;;6.97;1.30;;;20.00;99.90;;;;;;5020054;28;20053;-79
2022/07/03 09:37:59;;;;;;;2.15;0.90;;;20.00;99.90;;;;;;5012835;28;20042;-78
2022/07/03 09:40:28;;;;;;;3.60;1.38;;;20.00;99.90;;;;;;5013076;28;20064;-78
2022/07/03 09:43:04;;;;;;;1.25;1.00;;;20.10;99.90;;;;;;5010331;28;20045;-80
2022/07/03 09:45:49;;;;;;;0.82;0.82;;;20.00;99.90;;;;;;5013903;28;20119;-78
2022/07/03 09:48:25;;;;;;;1.55;1.15;;;20.00;99.90;;;;;;5012705;28;20412;-80
2022/07/03 09:51:15;;;;;;;6.35;1.00;;;20.00;99.90;;;;;;5005540;28;20053;-78
2022/07/03 09:53:53;;;;;;;3.40;1.50;;;20.00;99.90;;;;;;5004485;28;20136;-78
2022/07/03 09:56:20;;;;;;;1.17;0.93;;;19.90;99.90;;;;;;4986104;28;20045;-78
2022/07/03 09:59:01;;;;;;;3.75;2.10;;;19.90;99.90;;;;;;5003919;28;20038;-78
2022/07/03 10:01:27;;;;;;;1.42;1.30;;;19.90;99.90;;;;;;5002385;28;20207;-80
2022/07/03 10:03:55;;;;;;;2.53;1.20;;;20.00;99.90;;;;;;5003053;28;20650;-78
2022/07/03 10:06:20;;;;;;;2.20;1.20;;;20.00;99.90;;;;;;5003849;28;20038;-78
2022/07/03 10:08:47;;;;;;;0.90;0.82;;;20.00;99.90;;;;;;5003421;28;20049;-78
2022/07/03 10:11:13;;;;;;;1.38;1.27;;;19.90;99.90;;;;;;5013770;28;20033;-80
2022/07/03 10:13:40;;;;;;;1.20;1.10;;;19.90;99.90;;;;;;5021915;28;20041;-78
2022/07/03 10:16:07;;;;;;;1.17;1.02;;;19.90;99.90;;;;;;5023128;28;20128;-78
2022/07/03 10:18:37;;;;;;;3.05;1.38;;;19.90;99.90;;;;;;5023503;28;20041;-78
2022/07/03 10:21:05;;;;;;;1.73;1.08;;;19.90;99.90;;;;;;5023483;28;20053;-78
2022/07/03 10:23:31;;;;;;;3.75;1.55;;;19.90;99.90;;;;;;5023176;28;20034;-78
2022/07/03 10:25:58;;;;;;;2.85;1.10;;;19.90;99.90;;;;;;5021925;28;20084;-78
2022/07/03 10:28:24;;;;;;;2.58;1.25;;;20.00;99.90;;;;;;5023298;28;20038;-78
2022/07/03 10:30:50;;;;;;;2.95;0.80;;;19.90;99.90;;;;;;5021338;28;20049;-78
2022/07/03 10:33:16;;;;;;;1.90;1.35;;;19.90;99.90;;;;;;5023713;28;20087;-79
2022/07/03 10:35:50;;;;;;;0.98;0.90;;;20.00;99.90;;;;;;5022780;28;20128;-78
2022/07/03 10:38:42;;;;;;;7.03;1.25;;;20.00;99.90;;;;;;5022443;28;20084;-78
2022/07/03 10:44:47;;;;;;;2.75;1.25;;;20.00;99.90;;;;;;5021741;28;20057;-78
2022/07/03 10:47:38;;;;;;;1.15;0.90;;;20.10;99.90;;;;;;5022825;28;20072;-78
2022/07/03 10:50:08;;;;;;;2.20;1.13;;;20.10;99.90;;;;;;5021457;28;20057;-77
2022/07/03 10:52:34;;;;;;;0.88;0.88;;;20.10;99.90;;;;;;5022557;28;20760;-77
2022/07/03 10:55:02;;;;;;;2.28;0.85;;;20.10;99.90;;;;;;5022704;28;20044;-80
2022/07/03 10:57:28;;;;;;;0.73;0.68;;;20.10;99.90;;;;;;5022388;28;20696;-78
2022/07/03 10:59:54;;;;;;;1.17;0.57;;;20.10;99.90;;;;;;5022325;28;20049;-78
2022/07/03 11:02:34;;;;;;;1.30;1.08;;;20.10;99.90;;;;;;5021508;28;20085;-77
2022/07/03 11:05:03;;;;;;;3.17;0.73;;;20.20;99.90;;;;;;5021705;28;20054;-79
2022/07/03 11:07:47;;;;;;;0.38;0.38;;;20.30;99.90;;;;;;5021707;28;20084;-78
2022/07/03 11:10:19;;;;;;;0.40;0.40;;;20.30;99.90;;;;;;5004785;28;20038;-78
2022/07/03 11:13:03;;;;;;;0.90;0.65;;;20.30;99.90;;;;;;5009863;28;20061;-79
2022/07/03 11:15:34;;;;;;;2.58;1.27;;;20.30;99.90;;;;;;5001633;28;20046;-78
2022/07/03 11:18:11;;;;;;;1.55;0.77;;;20.30;99.90;;;;;;5000940;28;20056;-78
2022/07/03 11:20:42;;;;;;;1.65;0.68;;;20.40;99.90;;;;;;5000758;28;20050;-78
2022/07/03 11:23:23;;;;;;;1.27;0.85;;;20.30;99.90;;;;;;5002554;28;20396;-76
2022/07/03 11:25:50;;;;;;;3.00;1.08;;;20.40;99.90;;;;;;5001088;28;20050;-76
2022/07/03 11:28:34;;;;;;;0.80;0.80;;;20.40;99.90;;;;;;5002281;28;20042;-76
2022/07/03 11:31:15;;;;;;;0.80;0.70;;;20.40;99.90;;;;;;5000888;28;20046;-76
2022/07/03 11:33:45;;;;;;;0.70;0.70;;;20.50;99.90;;;;;;4984411;28;20064;-76
2022/07/03 11:36:11;;;;;;;0.93;0.80;;;20.60;99.90;;;;;;5001192;28;20045;-76
2022/07/03 11:38:37;;;;;;;0.63;0.63;;;20.60;99.90;;;;;;5001956;28;20049;-76
2022/07/03 11:41:07;;;;;;;0.95;0.60;;;20.70;99.90;;;;;;5002206;28;20045;-76
2022/07/03 11:43:34;;;;;;;0.82;0.63;;;20.70;99.90;;;;;;5000581;28;20136;-76
2022/07/03 11:46:01;;;;;;;7.57;1.02;;;20.80;99.90;;;;;;5000911;28;20125;-76
2022/07/03 11:48:27;;;;;;;4.72;0.80;;;20.80;99.90;;;;;;5001650;28;20046;-76
2022/07/03 11:51:02;;;;;;;0.63;0.63;;;20.80;99.90;;;;;;4999999;28;20117;-76
2022/07/03 11:53:33;;;;;;;0.70;0.70;;;20.80;99.90;;;;;;5001866;28;20128;-76
2022/07/03 11:56:15;;;;;;;2.45;0.80;;;20.80;99.90;;;;;;4999988;28;20516;-76
2022/07/03 11:58:49;;;;;;;1.15;1.05;;;20.80;99.90;;;;;;5002582;28;20042;-79
2022/07/03 12:01:35;;;;;;;1.58;0.65;;;20.80;99.90;;;;;;5014197;28;20206;-79
2022/07/03 12:04:16;;;;;;;1.20;0.85;;;20.90;99.90;;;;;;5035731;28;20445;-79
2022/07/03 12:06:43;;;;;;;1.63;0.70;;;20.90;99.90;;;;;;5042379;28;20122;-79
2022/07/03 12:09:20;;;;;;;1.88;1.35;;;20.90;99.90;;;;;;5041308;28;20051;-80
2022/07/03 12:11:57;;;;;;;0.95;0.70;;;20.90;99.90;;;;;;5037465;28;20783;-80
2022/07/03 12:14:37;;;;;;;1.65;1.15;;;20.90;99.90;;;;;;5020369;28;20045;-79
2022/07/03 12:17:04;;;;;;;0.75;0.75;;;20.90;99.90;;;;;;5015696;28;20053;-79
2022/07/03 12:19:29;;;;;;;1.23;0.85;;;20.80;99.90;;;;;;4999335;28;20069;-80
2022/07/03 12:21:55;;;;;;;0.80;0.80;;;20.70;99.90;;;;;;5013022;28;20398;-79
2022/07/03 12:24:21;;;;;;;0.93;0.70;;;20.70;99.90;;;;;;5040122;28;20041;-78
2022/07/03 12:26:48;;;;;;;1.30;0.80;;;20.70;99.90;;;;;;5022383;28;20125;-78
2022/07/03 12:29:15;;;;;;;0.70;0.70;;;20.70;99.90;;;;;;5007167;28;20073;-78
2022/07/03 12:31:44;;;;;;;0.90;0.85;;;20.70;99.90;;;;;;5014795;28;20045;-77
2022/07/03 12:34:11;;;;;;;1.80;0.77;;;20.80;99.90;;;;;;5003280;28;20103;-78
2022/07/03 12:36:37;;;;;;;0.55;0.55;;;20.80;99.90;;;;;;5002168;28;20077;-79
2022/07/03 12:39:03;;;;;;;0.85;0.57;;;20.90;99.90;;;;;;5002739;28;20041;-78
2022/07/03 12:41:29;;;;;;;0.75;0.75;;;20.90;99.90;;;;;;5014782;28;20115;-77
2022/07/03 12:43:58;;;;;;;2.40;1.10;;;20.90;99.90;;;;;;5016378;28;20553;-78
2022/07/03 12:46:34;;;;;;;0.57;0.57;;;21.00;99.90;;;;;;5023514;28;20037;-81
2022/07/03 12:49:08;;;;;;;0.60;0.60;;;21.00;99.90;;;;;;5030212;28;20598;-78
2022/07/03 12:51:48;;;;;;;0.50;0.50;;;21.00;99.90;;;;;;5038951;28;20721;-78
2022/07/03 12:54:22;;;;;;;0.60;0.52;;;21.00;99.90;;;;;;5036352;28;20041;-79
2022/07/03 12:59:16;;;;;;;1.00;0.93;;;21.00;99.90;;;;;;5029015;28;20404;-78
2022/07/03 13:00:05;;;;;;;1.38;0.70;;;21.10;99.90;;;;;;5019239;28;20438;-76
2022/07/03 13:02:32;;;;;;;0.50;0.50;;;21.10;99.90;;;;;;5018587;28;20053;-83
2022/07/03 13:04:59;;;;;;;0.75;0.75;;;21.10;99.90;;;;;;5018045;28;20132;-83
2022/07/03 13:07:30;;;;;;;0.60;0.60;;;21.10;99.90;;;;;;5019587;28;20290;-83
2022/07/03 13:09:59;;;;;;;0.55;0.50;;;21.10;99.90;;;;;;5019009;28;20056;-84
2022/07/03 13:12:24;;;;;;;0.85;0.40;;;21.10;99.90;;;;;;5009802;28;20041;-83